SWA2939 KLGA-KOMA
Flight info
| Callsign | SWA2939 |
|---|---|
| Flight time | 2h 51m |
| Altitude | 34000 |
| Route | NEWEL J60 DJB CPONE/N0461F360 JOT J60 IOW J10 DSM LANTK2 |
| Aircraft | B738/M-SDE2E3FGHIRWXY/LB1 |
Departure
| Time | 2026-05-08 00:26 |
|---|---|
| Airport | LaGuardia Airport (KLGA) |
Arrival
| Time | 2026-05-08 03:18 |
|---|---|
| Airport | Eppley Airfield (KOMA) |
| Time | Latitude | Longitude | Altitude | Speed | Heading |
|---|---|---|---|---|---|
| 2026-05-07 23:58 | 40.77392 | -73.86818 | 18 ft | 0 kts | 242° |
| 2026-05-08 00:12 | 40.77396 | -73.86808 | 18 ft | 3 kts | 242° |
| 2026-05-08 00:12 | 40.77405 | -73.86786 | 20 ft | 3 kts | 242° |
| 2026-05-08 00:12 | 40.77414 | -73.86764 | 18 ft | 3 kts | 251° |
| 2026-05-08 00:13 | 40.77422 | -73.86743 | 21 ft | 3 kts | 238° |
| 2026-05-08 00:13 | 40.77425 | -73.86719 | 20 ft | 3 kts | 304° |
| 2026-05-08 00:13 | 40.77418 | -73.86709 | 22 ft | 0 kts | 333° |
| 2026-05-08 00:16 | 40.77422 | -73.86707 | 21 ft | 1 kts | 15° |
| 2026-05-08 00:17 | 40.77441 | -73.86689 | 16 ft | 8 kts | 33° |
| 2026-05-08 00:17 | 40.77496 | -73.86719 | 11 ft | 10 kts | 311° |
| 2026-05-08 00:17 | 40.77541 | -73.86787 | 12 ft | 9 kts | 311° |
| 2026-05-08 00:17 | 40.77566 | -73.86818 | 12 ft | 4 kts | 333° |
| 2026-05-08 00:18 | 40.77593 | -73.86810 | 11 ft | 5 kts | 24° |
| 2026-05-08 00:18 | 40.77622 | -73.86817 | 11 ft | 5 kts | 322° |
| 2026-05-08 00:18 | 40.77640 | -73.86852 | 13 ft | 5 kts | 298° |
| 2026-05-08 00:18 | 40.77657 | -73.86889 | 11 ft | 5 kts | 302° |
| 2026-05-08 00:19 | 40.77678 | -73.86934 | 11 ft | 7 kts | 302° |
| 2026-05-08 00:19 | 40.77706 | -73.86993 | 13 ft | 9 kts | 301° |
| 2026-05-08 00:19 | 40.77741 | -73.87067 | 12 ft | 10 kts | 302° |
| 2026-05-08 00:19 | 40.77783 | -73.87157 | 12 ft | 13 kts | 302° |
| 2026-05-08 00:20 | 40.77825 | -73.87263 | 13 ft | 11 kts | 290° |
| 2026-05-08 00:20 | 40.77835 | -73.87339 | 15 ft | 8 kts | 271° |
| 2026-05-08 00:20 | 40.77829 | -73.87414 | 13 ft | 8 kts | 258° |
| 2026-05-08 00:20 | 40.77808 | -73.87481 | 14 ft | 8 kts | 240° |
| 2026-05-08 00:21 | 40.77777 | -73.87539 | 17 ft | 8 kts | 226° |
| 2026-05-08 00:21 | 40.77738 | -73.87584 | 19 ft | 7 kts | 218° |
| 2026-05-08 00:21 | 40.77696 | -73.87621 | 22 ft | 8 kts | 211° |
| 2026-05-08 00:21 | 40.77640 | -73.87666 | 21 ft | 11 kts | 211° |
| 2026-05-08 00:22 | 40.77569 | -73.87723 | 20 ft | 12 kts | 212° |
| 2026-05-08 00:22 | 40.77499 | -73.87781 | 20 ft | 12 kts | 212° |
| 2026-05-08 00:22 | 40.77431 | -73.87837 | 20 ft | 11 kts | 212° |
| 2026-05-08 00:22 | 40.77365 | -73.87892 | 21 ft | 11 kts | 212° |
| 2026-05-08 00:23 | 40.77300 | -73.87946 | 19 ft | 11 kts | 213° |
| 2026-05-08 00:23 | 40.77238 | -73.87999 | 22 ft | 10 kts | 213° |
| 2026-05-08 00:23 | 40.77177 | -73.88050 | 21 ft | 10 kts | 212° |
| 2026-05-08 00:23 | 40.77118 | -73.88098 | 22 ft | 10 kts | 211° |
| 2026-05-08 00:24 | 40.77059 | -73.88144 | 23 ft | 10 kts | 212° |
| 2026-05-08 00:24 | 40.77009 | -73.88200 | 27 ft | 9 kts | 225° |
| 2026-05-08 00:24 | 40.76962 | -73.88260 | 26 ft | 9 kts | 223° |
| 2026-05-08 00:24 | 40.76926 | -73.88326 | 29 ft | 9 kts | 246° |
| 2026-05-08 00:25 | 40.76945 | -73.88387 | 29 ft | 8 kts | 356° |
| 2026-05-08 00:25 | 40.76972 | -73.88369 | 29 ft | 0 kts | 33° |
| 2026-05-08 00:25 | 40.76974 | -73.88367 | 29 ft | 2 kts | 33° |
| 2026-05-08 00:25 | 40.77162 | -73.88213 | 22 ft | 70 kts | 32° |
| 2026-05-08 00:26 | 40.77778 | -73.87704 | 22 ft | 136 kts | 32° |
| 2026-05-08 00:26 | 40.78703 | -73.86930 | 316 ft | 165 kts | 32° |
| 2026-05-08 00:26 | 40.79678 | -73.86117 | 1078 ft | 173 kts | 17° |
| 2026-05-08 00:26 | 40.80945 | -73.86126 | 1530 ft | 194 kts | 344° |
| 2026-05-08 00:27 | 40.82274 | -73.86582 | 2147 ft | 203 kts | 347° |
| 2026-05-08 00:27 | 40.83745 | -73.87016 | 2382 ft | 229 kts | 347° |
| 2026-05-08 00:27 | 40.85386 | -73.87492 | 2707 ft | 250 kts | 347° |
| 2026-05-08 00:27 | 40.87094 | -73.87970 | 3552 ft | 251 kts | 347° |
| 2026-05-08 00:28 | 40.88821 | -73.88436 | 4402 ft | 256 kts | 347° |
| 2026-05-08 00:28 | 40.90588 | -73.88895 | 5232 ft | 260 kts | 347° |
| 2026-05-08 00:28 | 40.92370 | -73.89326 | 6178 ft | 260 kts | 347° |
| 2026-05-08 00:28 | 40.94154 | -73.89764 | 7026 ft | 262 kts | 339° |
| 2026-05-08 00:29 | 40.95701 | -73.90947 | 7795 ft | 257 kts | 310° |
| 2026-05-08 00:29 | 40.96595 | -73.92934 | 8599 ft | 252 kts | 283° |
| 2026-05-08 00:29 | 40.96647 | -73.95223 | 9524 ft | 249 kts | 261° |
| 2026-05-08 00:29 | 40.96300 | -73.97469 | 10350 ft | 251 kts | 258° |
| 2026-05-08 00:30 | 40.95895 | -73.99807 | 10637 ft | 273 kts | 257° |
| 2026-05-08 00:30 | 40.95452 | -74.02350 | 10834 ft | 295 kts | 257° |
| 2026-05-08 00:30 | 40.94973 | -74.05094 | 11007 ft | 317 kts | 257° |
| 2026-05-08 00:30 | 40.94565 | -74.08027 | 11424 ft | 329 kts | 264° |
| 2026-05-08 00:31 | 40.94486 | -74.11070 | 12101 ft | 333 kts | 268° |
| 2026-05-08 00:31 | 40.94502 | -74.14135 | 12905 ft | 333 kts | 268° |
| 2026-05-08 00:31 | 40.94522 | -74.17207 | 13692 ft | 334 kts | 268° |
| 2026-05-08 00:31 | 40.94522 | -74.20286 | 14339 ft | 336 kts | 267° |
| 2026-05-08 00:32 | 40.94500 | -74.23386 | 14966 ft | 339 kts | 266° |
| 2026-05-08 00:32 | 40.94460 | -74.26515 | 15533 ft | 343 kts | 266° |
| 2026-05-08 00:32 | 40.94408 | -74.29686 | 16142 ft | 346 kts | 266° |
| 2026-05-08 00:32 | 40.94347 | -74.32876 | 16761 ft | 348 kts | 265° |
| 2026-05-08 00:33 | 40.94282 | -74.36046 | 17365 ft | 351 kts | 265° |
| 2026-05-08 00:33 | 40.94212 | -74.39286 | 17992 ft | 353 kts | 265° |
| 2026-05-08 00:33 | 40.94139 | -74.42536 | 18566 ft | 355 kts | 265° |
| 2026-05-08 00:33 | 40.94065 | -74.45797 | 19155 ft | 355 kts | 265° |
| 2026-05-08 00:34 | 40.93990 | -74.49053 | 19739 ft | 355 kts | 265° |
| 2026-05-08 00:34 | 40.93914 | -74.52322 | 20291 ft | 356 kts | 265° |
| 2026-05-08 00:34 | 40.93836 | -74.55599 | 20799 ft | 357 kts | 265° |
| 2026-05-08 00:34 | 40.93756 | -74.58878 | 21320 ft | 358 kts | 265° |
| 2026-05-08 00:35 | 40.93676 | -74.62175 | 21832 ft | 359 kts | 265° |
| 2026-05-08 00:35 | 40.93594 | -74.65478 | 22328 ft | 360 kts | 264° |
| 2026-05-08 00:35 | 40.93512 | -74.68794 | 22817 ft | 361 kts | 264° |
| 2026-05-08 00:35 | 40.93428 | -74.72114 | 23314 ft | 362 kts | 264° |
| 2026-05-08 00:36 | 40.93343 | -74.75442 | 23725 ft | 363 kts | 264° |
| 2026-05-08 00:36 | 40.93256 | -74.78787 | 24097 ft | 364 kts | 264° |
| 2026-05-08 00:36 | 40.93169 | -74.82139 | 24485 ft | 365 kts | 264° |
| 2026-05-08 00:36 | 40.93080 | -74.85500 | 24868 ft | 366 kts | 264° |
| 2026-05-08 00:37 | 40.92991 | -74.88863 | 25236 ft | 367 kts | 264° |
| 2026-05-08 00:37 | 40.92899 | -74.92245 | 25570 ft | 368 kts | 264° |
| 2026-05-08 00:37 | 40.92807 | -74.95633 | 25915 ft | 369 kts | 264° |
| 2026-05-08 00:38 | 40.92619 | -75.02435 | 26574 ft | 371 kts | 264° |
| 2026-05-08 00:38 | 40.92523 | -75.05855 | 26882 ft | 373 kts | 264° |
| 2026-05-08 00:38 | 40.92426 | -75.09287 | 27237 ft | 374 kts | 264° |
| 2026-05-08 00:38 | 40.92328 | -75.12708 | 27684 ft | 371 kts | 264° |
| 2026-05-08 00:39 | 40.92135 | -75.16080 | 28209 ft | 365 kts | 259° |
| 2026-05-08 00:39 | 40.91672 | -75.19357 | 28713 ft | 361 kts | 254° |
| 2026-05-08 00:39 | 40.90951 | -75.22518 | 29182 ft | 358 kts | 252° |
| 2026-05-08 00:39 | 40.90208 | -75.25593 | 29648 ft | 354 kts | 252° |
| 2026-05-08 00:40 | 40.89464 | -75.28694 | 30059 ft | 353 kts | 252° |
| 2026-05-08 00:40 | 40.88725 | -75.31792 | 30386 ft | 353 kts | 252° |
| 2026-05-08 00:40 | 40.87992 | -75.34877 | 30701 ft | 352 kts | 252° |
| 2026-05-08 00:40 | 40.87259 | -75.37962 | 31016 ft | 352 kts | 252° |
| 2026-05-08 00:41 | 40.86525 | -75.41051 | 31338 ft | 351 kts | 252° |
| 2026-05-08 00:41 | 40.85800 | -75.44116 | 31660 ft | 351 kts | 252° |
| 2026-05-08 00:41 | 40.85071 | -75.47196 | 31878 ft | 351 kts | 252° |
| 2026-05-08 00:41 | 40.84344 | -75.50266 | 32233 ft | 349 kts | 253° |
| 2026-05-08 00:42 | 40.83621 | -75.53318 | 32556 ft | 348 kts | 253° |
| 2026-05-08 00:42 | 40.82896 | -75.56371 | 32840 ft | 348 kts | 253° |
| 2026-05-08 00:42 | 40.82171 | -75.59423 | 33042 ft | 350 kts | 253° |
| 2026-05-08 00:42 | 40.81440 | -75.62495 | 33170 ft | 353 kts | 253° |
| 2026-05-08 00:43 | 40.80702 | -75.65596 | 33330 ft | 355 kts | 253° |
| 2026-05-08 00:43 | 40.79959 | -75.68707 | 33534 ft | 355 kts | 253° |
| 2026-05-08 00:43 | 40.79218 | -75.71808 | 33802 ft | 354 kts | 253° |
| 2026-05-08 00:44 | 40.77726 | -75.78042 | 33872 ft | 357 kts | 253° |
| 2026-05-08 00:44 | 40.76227 | -75.84284 | 33896 ft | 357 kts | 253° |
| 2026-05-08 00:45 | 40.74725 | -75.90521 | 33892 ft | 357 kts | 253° |
| 2026-05-08 00:45 | 40.73218 | -75.96768 | 33881 ft | 358 kts | 253° |
| 2026-05-08 00:46 | 40.71707 | -76.03011 | 33886 ft | 358 kts | 253° |
| 2026-05-08 00:46 | 40.70204 | -76.09212 | 33875 ft | 357 kts | 253° |
| 2026-05-08 00:47 | 40.68681 | -76.15473 | 33922 ft | 356 kts | 253° |
| 2026-05-08 00:47 | 40.67564 | -76.21828 | 33899 ft | 358 kts | 263° |
| 2026-05-08 00:48 | 40.67397 | -76.28399 | 33893 ft | 361 kts | 269° |
| 2026-05-08 00:48 | 40.68198 | -76.34977 | 33888 ft | 366 kts | 276° |
| 2026-05-08 00:49 | 40.69197 | -76.41497 | 33894 ft | 366 kts | 276° |
| 2026-05-08 00:49 | 40.70197 | -76.48077 | 33891 ft | 366 kts | 276° |
| 2026-05-08 00:50 | 40.71184 | -76.54672 | 33890 ft | 367 kts | 276° |
| 2026-05-08 00:50 | 40.72163 | -76.61271 | 33890 ft | 367 kts | 276° |
| 2026-05-08 00:51 | 40.73138 | -76.67873 | 33881 ft | 366 kts | 276° |
| 2026-05-08 00:51 | 40.74106 | -76.74467 | 33883 ft | 366 kts | 276° |
| 2026-05-08 00:52 | 40.75069 | -76.81056 | 33875 ft | 366 kts | 276° |
| 2026-05-08 00:52 | 40.76027 | -76.87636 | 33909 ft | 365 kts | 276° |
| 2026-05-08 00:53 | 40.76981 | -76.94214 | 33894 ft | 365 kts | 276° |
| 2026-05-08 00:53 | 40.77931 | -77.00794 | 33884 ft | 365 kts | 276° |
| 2026-05-08 00:54 | 40.78879 | -77.07386 | 33880 ft | 366 kts | 276° |
| 2026-05-08 00:54 | 40.79824 | -77.13987 | 33886 ft | 366 kts | 276° |
| 2026-05-08 00:55 | 40.80767 | -77.20605 | 33890 ft | 367 kts | 276° |
| 2026-05-08 00:55 | 40.81708 | -77.27239 | 33901 ft | 368 kts | 276° |
| 2026-05-08 00:56 | 40.82647 | -77.33878 | 33890 ft | 368 kts | 276° |
| 2026-05-08 00:56 | 40.83585 | -77.40531 | 33902 ft | 369 kts | 276° |
| 2026-05-08 00:57 | 40.84513 | -77.47186 | 33893 ft | 368 kts | 276° |
| 2026-05-08 00:57 | 40.85428 | -77.53842 | 33894 ft | 369 kts | 276° |
| 2026-05-08 00:58 | 40.86343 | -77.60520 | 33928 ft | 370 kts | 277° |
| 2026-05-08 00:58 | 40.87104 | -77.66086 | 33905 ft | 371 kts | 277° |
| 2026-05-08 00:59 | 40.88017 | -77.72786 | 33914 ft | 370 kts | 277° |
| 2026-05-08 00:59 | 40.89075 | -77.80569 | 33899 ft | 370 kts | 277° |
| 2026-05-08 01:00 | 40.89834 | -77.86174 | 33923 ft | 369 kts | 277° |
| 2026-05-08 01:00 | 40.90738 | -77.92870 | 33876 ft | 369 kts | 276° |
| 2026-05-08 01:01 | 40.91633 | -77.99541 | 33903 ft | 368 kts | 276° |
| 2026-05-08 01:01 | 40.92480 | -78.06203 | 33900 ft | 367 kts | 276° |
| 2026-05-08 01:02 | 40.93307 | -78.12865 | 33919 ft | 367 kts | 276° |
| 2026-05-08 01:02 | 40.94133 | -78.19524 | 33920 ft | 367 kts | 276° |
| 2026-05-08 01:03 | 40.94958 | -78.26187 | 33929 ft | 367 kts | 276° |
| 2026-05-08 01:03 | 40.95779 | -78.32846 | 33919 ft | 367 kts | 276° |
| 2026-05-08 01:04 | 40.96599 | -78.39517 | 33915 ft | 368 kts | 276° |
| 2026-05-08 01:04 | 40.97407 | -78.46155 | 33914 ft | 368 kts | 276° |
| 2026-05-08 01:05 | 40.98209 | -78.52844 | 33919 ft | 368 kts | 276° |
| 2026-05-08 01:05 | 40.99008 | -78.59538 | 33919 ft | 368 kts | 276° |
| 2026-05-08 01:06 | 40.99803 | -78.66232 | 33929 ft | 368 kts | 276° |
| 2026-05-08 01:06 | 41.00594 | -78.72933 | 33937 ft | 369 kts | 276° |
| 2026-05-08 01:07 | 41.01385 | -78.79654 | 33943 ft | 370 kts | 276° |
| 2026-05-08 01:07 | 41.02172 | -78.86378 | 33947 ft | 370 kts | 276° |
| 2026-05-08 01:08 | 41.02955 | -78.93109 | 33962 ft | 371 kts | 276° |
| 2026-05-08 01:08 | 41.03736 | -78.99850 | 33949 ft | 370 kts | 276° |
| 2026-05-08 01:09 | 41.04513 | -79.06594 | 33965 ft | 370 kts | 276° |
| 2026-05-08 01:09 | 41.05284 | -79.13323 | 33950 ft | 369 kts | 276° |
| 2026-05-08 01:10 | 41.06049 | -79.20029 | 33946 ft | 368 kts | 276° |
| 2026-05-08 01:10 | 41.06807 | -79.26725 | 33949 ft | 367 kts | 276° |
| 2026-05-08 01:11 | 41.07560 | -79.33398 | 33953 ft | 366 kts | 276° |
| 2026-05-08 01:11 | 41.08308 | -79.40068 | 33952 ft | 366 kts | 276° |
| 2026-05-08 01:12 | 41.09047 | -79.46688 | 33973 ft | 366 kts | 276° |
| 2026-05-08 01:12 | 41.09786 | -79.53351 | 33965 ft | 364 kts | 276° |
| 2026-05-08 01:13 | 41.10518 | -79.59985 | 33965 ft | 363 kts | 276° |
| 2026-05-08 01:13 | 41.11244 | -79.66603 | 33972 ft | 362 kts | 276° |
| 2026-05-08 01:14 | 41.11966 | -79.73217 | 33978 ft | 362 kts | 276° |
| 2026-05-08 01:14 | 41.12683 | -79.79813 | 33989 ft | 361 kts | 276° |
| 2026-05-08 01:15 | 41.13394 | -79.86402 | 33977 ft | 361 kts | 276° |
| 2026-05-08 01:15 | 41.14101 | -79.92981 | 33980 ft | 360 kts | 276° |
| 2026-05-08 01:16 | 41.14802 | -79.99548 | 33981 ft | 359 kts | 276° |
| 2026-05-08 01:16 | 41.15499 | -80.06113 | 33996 ft | 359 kts | 276° |
| 2026-05-08 01:17 | 41.16193 | -80.12671 | 34001 ft | 359 kts | 276° |
| 2026-05-08 01:17 | 41.16881 | -80.19230 | 34003 ft | 359 kts | 276° |
| 2026-05-08 01:18 | 41.17566 | -80.25795 | 33998 ft | 359 kts | 276° |
| 2026-05-08 01:18 | 41.18249 | -80.32371 | 34002 ft | 360 kts | 276° |
| 2026-05-08 01:19 | 41.18928 | -80.38950 | 34008 ft | 360 kts | 276° |
| 2026-05-08 01:19 | 41.19606 | -80.45540 | 33998 ft | 361 kts | 276° |
| 2026-05-08 01:20 | 41.20284 | -80.52143 | 33994 ft | 361 kts | 276° |
| 2026-05-08 01:20 | 41.20953 | -80.58704 | 33997 ft | 361 kts | 276° |
| 2026-05-08 01:21 | 41.21624 | -80.65316 | 33982 ft | 362 kts | 276° |
| 2026-05-08 01:21 | 41.22294 | -80.71949 | 33981 ft | 363 kts | 276° |
| 2026-05-08 01:22 | 41.22960 | -80.78593 | 33977 ft | 363 kts | 275° |
| 2026-05-08 01:22 | 41.23624 | -80.85250 | 33982 ft | 364 kts | 275° |
| 2026-05-08 01:23 | 41.24284 | -80.91911 | 33967 ft | 364 kts | 276° |
| 2026-05-08 01:23 | 41.24940 | -80.98577 | 33981 ft | 364 kts | 276° |
| 2026-05-08 01:24 | 41.25594 | -81.05252 | 33991 ft | 365 kts | 276° |
| 2026-05-08 01:24 | 41.26245 | -81.11948 | 33989 ft | 366 kts | 275° |
| 2026-05-08 01:25 | 41.26894 | -81.18657 | 33988 ft | 366 kts | 275° |
| 2026-05-08 01:25 | 41.27539 | -81.25367 | 33987 ft | 366 kts | 275° |
| 2026-05-08 01:26 | 41.28181 | -81.32087 | 33979 ft | 367 kts | 276° |
| 2026-05-08 01:26 | 41.28820 | -81.38819 | 33993 ft | 367 kts | 276° |
| 2026-05-08 01:27 | 41.29456 | -81.45562 | 33985 ft | 368 kts | 275° |
| 2026-05-08 01:27 | 41.30089 | -81.52310 | 33988 ft | 368 kts | 275° |
| 2026-05-08 01:28 | 41.30718 | -81.59072 | 33975 ft | 368 kts | 275° |
| 2026-05-08 01:28 | 41.31335 | -81.65835 | 33961 ft | 368 kts | 275° |
| 2026-05-08 01:29 | 41.31947 | -81.72601 | 33965 ft | 368 kts | 275° |
| 2026-05-08 01:29 | 41.32558 | -81.79393 | 34138 ft | 371 kts | 275° |
| 2026-05-08 01:30 | 41.33170 | -81.86249 | 34151 ft | 373 kts | 275° |
| 2026-05-08 01:30 | 41.33475 | -81.89678 | 34042 ft | 373 kts | 275° |
| 2026-05-08 01:30 | 41.33778 | -81.93086 | 33991 ft | 368 kts | 275° |
| 2026-05-08 01:31 | 41.34372 | -81.99819 | 33975 ft | 367 kts | 275° |
| 2026-05-08 01:31 | 41.34965 | -82.06587 | 33986 ft | 369 kts | 275° |
| 2026-05-08 01:32 | 41.35557 | -82.13390 | 33982 ft | 371 kts | 275° |
| 2026-05-08 01:32 | 41.36093 | -82.20220 | 33981 ft | 371 kts | 274° |
| 2026-05-08 01:33 | 41.36486 | -82.27063 | 33982 ft | 371 kts | 273° |
| 2026-05-08 01:33 | 41.36865 | -82.33910 | 33981 ft | 370 kts | 274° |
| 2026-05-08 01:34 | 41.37249 | -82.40693 | 33977 ft | 370 kts | 274° |
| 2026-05-08 01:34 | 41.37639 | -82.47537 | 33985 ft | 371 kts | 274° |
| 2026-05-08 01:35 | 41.38029 | -82.54390 | 33982 ft | 371 kts | 274° |
| 2026-05-08 01:35 | 41.38416 | -82.61252 | 33980 ft | 372 kts | 274° |
| 2026-05-08 01:36 | 41.38799 | -82.68111 | 33987 ft | 372 kts | 274° |
| 2026-05-08 01:36 | 41.39178 | -82.74979 | 33978 ft | 372 kts | 274° |
| 2026-05-08 01:37 | 41.39553 | -82.81850 | 33980 ft | 373 kts | 274° |
| 2026-05-08 01:37 | 41.39926 | -82.88752 | 33987 ft | 375 kts | 274° |
| 2026-05-08 01:38 | 41.40297 | -82.95691 | 33987 ft | 377 kts | 274° |
| 2026-05-08 01:38 | 41.40665 | -83.02666 | 33978 ft | 378 kts | 274° |
| 2026-05-08 01:39 | 41.41031 | -83.09671 | 33982 ft | 379 kts | 274° |
| 2026-05-08 01:39 | 41.41392 | -83.16687 | 33967 ft | 380 kts | 274° |
| 2026-05-08 01:40 | 41.41750 | -83.23715 | 33977 ft | 381 kts | 274° |
| 2026-05-08 01:40 | 41.42105 | -83.30758 | 33974 ft | 381 kts | 274° |
| 2026-05-08 01:41 | 41.42456 | -83.37812 | 33973 ft | 382 kts | 274° |
| 2026-05-08 01:41 | 41.42803 | -83.44875 | 33975 ft | 382 kts | 274° |
| 2026-05-08 01:42 | 41.43143 | -83.51892 | 33968 ft | 382 kts | 274° |
| 2026-05-08 01:42 | 41.43481 | -83.58951 | 33970 ft | 382 kts | 274° |
| 2026-05-08 01:43 | 41.43815 | -83.66007 | 33968 ft | 381 kts | 274° |
| 2026-05-08 01:43 | 41.44144 | -83.73056 | 33968 ft | 381 kts | 274° |
| 2026-05-08 01:44 | 41.44469 | -83.80113 | 33968 ft | 381 kts | 274° |
| 2026-05-08 01:44 | 41.44789 | -83.87157 | 33967 ft | 381 kts | 274° |
| 2026-05-08 01:45 | 41.45104 | -83.94200 | 33982 ft | 380 kts | 274° |
| 2026-05-08 01:45 | 41.45414 | -84.01218 | 33970 ft | 379 kts | 274° |
| 2026-05-08 01:46 | 41.45719 | -84.08208 | 33981 ft | 377 kts | 274° |
| 2026-05-08 01:46 | 41.46019 | -84.15184 | 33982 ft | 376 kts | 274° |
| 2026-05-08 01:47 | 41.46264 | -84.20968 | 33984 ft | 376 kts | 274° |
| 2026-05-08 01:47 | 41.46555 | -84.27927 | 33991 ft | 376 kts | 274° |
| 2026-05-08 01:48 | 41.46983 | -84.38333 | 33982 ft | 374 kts | 274° |
| 2026-05-08 01:48 | 41.47262 | -84.45250 | 33984 ft | 373 kts | 274° |
| 2026-05-08 01:49 | 41.47537 | -84.52160 | 33988 ft | 373 kts | 274° |
| 2026-05-08 01:49 | 41.47807 | -84.59065 | 33985 ft | 373 kts | 274° |
| 2026-05-08 01:50 | 41.48073 | -84.65958 | 33992 ft | 372 kts | 274° |
| 2026-05-08 01:50 | 41.48334 | -84.72849 | 34008 ft | 372 kts | 275° |
| 2026-05-08 01:51 | 41.48592 | -84.79749 | 33981 ft | 372 kts | 275° |
| 2026-05-08 01:51 | 41.48845 | -84.86623 | 33982 ft | 371 kts | 274° |
| 2026-05-08 01:52 | 41.49093 | -84.93480 | 33983 ft | 370 kts | 274° |
| 2026-05-08 01:52 | 41.49336 | -85.00328 | 33979 ft | 370 kts | 274° |
| 2026-05-08 01:53 | 41.49576 | -85.07184 | 33964 ft | 369 kts | 275° |
| 2026-05-08 01:53 | 41.49811 | -85.14018 | 33982 ft | 368 kts | 275° |
| 2026-05-08 01:54 | 41.50040 | -85.20798 | 33967 ft | 368 kts | 274° |
| 2026-05-08 01:54 | 41.50266 | -85.27614 | 33981 ft | 368 kts | 274° |
| 2026-05-08 01:55 | 41.50488 | -85.34423 | 33982 ft | 367 kts | 274° |
| 2026-05-08 01:55 | 41.50706 | -85.41237 | 33976 ft | 367 kts | 274° |
| 2026-05-08 01:56 | 41.50920 | -85.48042 | 33965 ft | 367 kts | 274° |
| 2026-05-08 01:56 | 41.51129 | -85.54833 | 33981 ft | 366 kts | 274° |
| 2026-05-08 01:57 | 41.51335 | -85.61625 | 33980 ft | 366 kts | 274° |
| 2026-05-08 01:57 | 41.51536 | -85.68419 | 33983 ft | 367 kts | 274° |
| 2026-05-08 01:58 | 41.51734 | -85.75220 | 33982 ft | 367 kts | 274° |
| 2026-05-08 01:58 | 41.51927 | -85.82023 | 33981 ft | 367 kts | 274° |
| 2026-05-08 01:59 | 41.52117 | -85.88835 | 33982 ft | 367 kts | 274° |
| 2026-05-08 01:59 | 41.52304 | -85.95644 | 33980 ft | 367 kts | 274° |
| 2026-05-08 02:00 | 41.52486 | -86.02454 | 33973 ft | 367 kts | 274° |
| 2026-05-08 02:00 | 41.52631 | -86.09269 | 33953 ft | 367 kts | 274° |
| 2026-05-08 02:01 | 41.52748 | -86.16079 | 33953 ft | 367 kts | 274° |
| 2026-05-08 02:01 | 41.52863 | -86.22893 | 33945 ft | 367 kts | 274° |
| 2026-05-08 02:02 | 41.52977 | -86.29687 | 33954 ft | 366 kts | 274° |
| 2026-05-08 02:02 | 41.53088 | -86.36476 | 33953 ft | 366 kts | 274° |
| 2026-05-08 02:03 | 41.53196 | -86.43259 | 33955 ft | 366 kts | 274° |
| 2026-05-08 02:03 | 41.53299 | -86.50000 | 33943 ft | 366 kts | 274° |
| 2026-05-08 02:04 | 41.53399 | -86.56778 | 33915 ft | 366 kts | 273° |
| 2026-05-08 02:04 | 41.53495 | -86.63550 | 33926 ft | 365 kts | 273° |
| 2026-05-08 02:05 | 41.53586 | -86.70308 | 33934 ft | 364 kts | 273° |
| 2026-05-08 02:05 | 41.53674 | -86.77065 | 33936 ft | 364 kts | 273° |
| 2026-05-08 02:06 | 41.53758 | -86.83815 | 33937 ft | 364 kts | 273° |
| 2026-05-08 02:06 | 41.53838 | -86.90572 | 33937 ft | 364 kts | 273° |
| 2026-05-08 02:07 | 41.53914 | -86.97359 | 34040 ft | 368 kts | 273° |
| 2026-05-08 02:07 | 41.53951 | -87.00777 | 34228 ft | 369 kts | 273° |
| 2026-05-08 02:07 | 41.53987 | -87.04200 | 34464 ft | 368 kts | 273° |
| 2026-05-08 02:08 | 41.54022 | -87.07621 | 34690 ft | 368 kts | 273° |
| 2026-05-08 02:08 | 41.54055 | -87.11046 | 34873 ft | 370 kts | 273° |
| 2026-05-08 02:08 | 41.54088 | -87.14477 | 35054 ft | 370 kts | 273° |
| 2026-05-08 02:08 | 41.54120 | -87.17870 | 35255 ft | 371 kts | 273° |
| 2026-05-08 02:09 | 41.54151 | -87.21311 | 35436 ft | 371 kts | 273° |
| 2026-05-08 02:09 | 41.54181 | -87.24759 | 35619 ft | 372 kts | 273° |
| 2026-05-08 02:09 | 41.54210 | -87.28215 | 35809 ft | 372 kts | 273° |
| 2026-05-08 02:09 | 41.54238 | -87.31666 | 35915 ft | 373 kts | 273° |
| 2026-05-08 02:10 | 41.54291 | -87.38648 | 35917 ft | 378 kts | 273° |
| 2026-05-08 02:10 | 41.54340 | -87.45655 | 35943 ft | 377 kts | 273° |
| 2026-05-08 02:11 | 41.54385 | -87.52658 | 35949 ft | 377 kts | 272° |
| 2026-05-08 02:11 | 41.54426 | -87.59664 | 35943 ft | 377 kts | 272° |
| 2026-05-08 02:12 | 41.54462 | -87.66665 | 35946 ft | 377 kts | 272° |
| 2026-05-08 02:12 | 41.54494 | -87.73658 | 35927 ft | 376 kts | 272° |
| 2026-05-08 02:13 | 41.54522 | -87.80648 | 35933 ft | 377 kts | 272° |
| 2026-05-08 02:13 | 41.54546 | -87.87647 | 35932 ft | 377 kts | 272° |
| 2026-05-08 02:14 | 41.54566 | -87.94652 | 35936 ft | 377 kts | 272° |
| 2026-05-08 02:14 | 41.54581 | -88.01659 | 35938 ft | 378 kts | 272° |
| 2026-05-08 02:15 | 41.54593 | -88.08670 | 35926 ft | 377 kts | 272° |
| 2026-05-08 02:15 | 41.54599 | -88.15668 | 35928 ft | 377 kts | 272° |
| 2026-05-08 02:16 | 41.54603 | -88.22667 | 35935 ft | 377 kts | 272° |
| 2026-05-08 02:16 | 41.54602 | -88.29676 | 35937 ft | 378 kts | 272° |
| 2026-05-08 02:17 | 41.54616 | -88.36688 | 35930 ft | 378 kts | 272° |
| 2026-05-08 02:17 | 41.54660 | -88.43707 | 35929 ft | 378 kts | 272° |
| 2026-05-08 02:18 | 41.54701 | -88.50725 | 35903 ft | 378 kts | 272° |
| 2026-05-08 02:18 | 41.54734 | -88.57744 | 35916 ft | 378 kts | 272° |
| 2026-05-08 02:19 | 41.54761 | -88.64732 | 35914 ft | 379 kts | 272° |
| 2026-05-08 02:19 | 41.54784 | -88.71780 | 35915 ft | 380 kts | 272° |
| 2026-05-08 02:20 | 41.54802 | -88.78833 | 35921 ft | 380 kts | 272° |
| 2026-05-08 02:20 | 41.54816 | -88.85891 | 35918 ft | 380 kts | 272° |
| 2026-05-08 02:21 | 41.54826 | -88.92958 | 35924 ft | 381 kts | 272° |
| 2026-05-08 02:21 | 41.54832 | -89.00034 | 35924 ft | 382 kts | 272° |
| 2026-05-08 02:22 | 41.54833 | -89.07120 | 35926 ft | 382 kts | 272° |
| 2026-05-08 02:22 | 41.54830 | -89.14218 | 35926 ft | 382 kts | 272° |
| 2026-05-08 02:23 | 41.54822 | -89.21310 | 35927 ft | 382 kts | 272° |
| 2026-05-08 02:23 | 41.54812 | -89.28417 | 35916 ft | 383 kts | 271° |
| 2026-05-08 02:24 | 41.54795 | -89.35525 | 35924 ft | 384 kts | 271° |
| 2026-05-08 02:24 | 41.54770 | -89.42650 | 35936 ft | 384 kts | 271° |
| 2026-05-08 02:25 | 41.54741 | -89.49787 | 35928 ft | 385 kts | 271° |
| 2026-05-08 02:25 | 41.54707 | -89.56932 | 35933 ft | 385 kts | 271° |
| 2026-05-08 02:26 | 41.54670 | -89.64088 | 35929 ft | 385 kts | 271° |
| 2026-05-08 02:26 | 41.54628 | -89.71246 | 35922 ft | 385 kts | 271° |
| 2026-05-08 02:27 | 41.54582 | -89.78349 | 35928 ft | 385 kts | 271° |
| 2026-05-08 02:27 | 41.54532 | -89.85490 | 35922 ft | 385 kts | 271° |
| 2026-05-08 02:28 | 41.54477 | -89.92634 | 35926 ft | 385 kts | 271° |
| 2026-05-08 02:28 | 41.54418 | -89.99769 | 35920 ft | 385 kts | 271° |
| 2026-05-08 02:29 | 41.54354 | -90.06914 | 35919 ft | 385 kts | 271° |
| 2026-05-08 02:29 | 41.54286 | -90.14063 | 35928 ft | 386 kts | 271° |
| 2026-05-08 02:30 | 41.54214 | -90.21234 | 35925 ft | 387 kts | 271° |
| 2026-05-08 02:30 | 41.54136 | -90.28415 | 35922 ft | 387 kts | 271° |
| 2026-05-08 02:31 | 41.54054 | -90.35609 | 35917 ft | 388 kts | 271° |
| 2026-05-08 02:31 | 41.53968 | -90.42811 | 35909 ft | 389 kts | 271° |
| 2026-05-08 02:32 | 41.53877 | -90.50030 | 35920 ft | 390 kts | 271° |
| 2026-05-08 02:32 | 41.53780 | -90.57274 | 35915 ft | 391 kts | 270° |
| 2026-05-08 02:33 | 41.53680 | -90.64522 | 35917 ft | 391 kts | 270° |
| 2026-05-08 02:33 | 41.53574 | -90.71784 | 35918 ft | 391 kts | 270° |
| 2026-05-08 02:34 | 41.53464 | -90.79048 | 35894 ft | 392 kts | 270° |
| 2026-05-08 02:34 | 41.53349 | -90.86320 | 35912 ft | 393 kts | 270° |
| 2026-05-08 02:35 | 41.53229 | -90.93619 | 35920 ft | 394 kts | 270° |
| 2026-05-08 02:35 | 41.53105 | -91.00896 | 35919 ft | 395 kts | 270° |
| 2026-05-08 02:36 | 41.52976 | -91.08234 | 35921 ft | 396 kts | 270° |
| 2026-05-08 02:36 | 41.52841 | -91.15580 | 35908 ft | 396 kts | 270° |
| 2026-05-08 02:37 | 41.52725 | -91.21743 | 35918 ft | 397 kts | 270° |
| 2026-05-08 02:37 | 41.52582 | -91.29065 | 35922 ft | 398 kts | 270° |
| 2026-05-08 02:38 | 41.52433 | -91.36446 | 35921 ft | 398 kts | 270° |
| 2026-05-08 02:38 | 41.52279 | -91.43889 | 35925 ft | 399 kts | 270° |
| 2026-05-08 02:39 | 41.52121 | -91.51287 | 35916 ft | 399 kts | 270° |
| 2026-05-08 02:39 | 41.51960 | -91.58639 | 35913 ft | 399 kts | 269° |
| 2026-05-08 02:40 | 41.51770 | -91.66049 | 35920 ft | 400 kts | 269° |
| 2026-05-08 02:40 | 41.51528 | -91.73474 | 35917 ft | 401 kts | 269° |
| 2026-05-08 02:41 | 41.51279 | -91.80908 | 35920 ft | 401 kts | 269° |
| 2026-05-08 02:41 | 41.51030 | -91.88353 | 35915 ft | 402 kts | 269° |
| 2026-05-08 02:42 | 41.50779 | -91.95803 | 35904 ft | 402 kts | 269° |
| 2026-05-08 02:42 | 41.50523 | -92.03262 | 35910 ft | 403 kts | 269° |
| 2026-05-08 02:43 | 41.50262 | -92.10740 | 35908 ft | 404 kts | 269° |
| 2026-05-08 02:43 | 41.49996 | -92.18236 | 35908 ft | 405 kts | 268° |
| 2026-05-08 02:44 | 41.49724 | -92.25739 | 35904 ft | 405 kts | 268° |
| 2026-05-08 02:44 | 41.49448 | -92.33249 | 35890 ft | 406 kts | 268° |
| 2026-05-08 02:45 | 41.49165 | -92.40769 | 35908 ft | 406 kts | 268° |
| 2026-05-08 02:45 | 41.48878 | -92.48305 | 35910 ft | 408 kts | 268° |
| 2026-05-08 02:46 | 41.48585 | -92.55862 | 35908 ft | 408 kts | 268° |
| 2026-05-08 02:46 | 41.48286 | -92.63420 | 35909 ft | 409 kts | 268° |
| 2026-05-08 02:47 | 41.47982 | -92.70989 | 35895 ft | 409 kts | 268° |
| 2026-05-08 02:47 | 41.47673 | -92.78566 | 35904 ft | 409 kts | 268° |
| 2026-05-08 02:48 | 41.47359 | -92.86153 | 35917 ft | 410 kts | 268° |
| 2026-05-08 02:48 | 41.47039 | -92.93746 | 35918 ft | 410 kts | 268° |
| 2026-05-08 02:49 | 41.46716 | -93.01291 | 35917 ft | 410 kts | 268° |
| 2026-05-08 02:49 | 41.46386 | -93.08885 | 35913 ft | 410 kts | 268° |
| 2026-05-08 02:50 | 41.46052 | -93.16479 | 35729 ft | 413 kts | 268° |
| 2026-05-08 02:50 | 41.45881 | -93.20320 | 35247 ft | 413 kts | 268° |
| 2026-05-08 02:50 | 41.45710 | -93.24110 | 34806 ft | 408 kts | 268° |
| 2026-05-08 02:51 | 41.45539 | -93.27869 | 34379 ft | 404 kts | 268° |
| 2026-05-08 02:51 | 41.45369 | -93.31590 | 33927 ft | 401 kts | 268° |
| 2026-05-08 02:51 | 41.45199 | -93.35291 | 33410 ft | 398 kts | 268° |
| 2026-05-08 02:51 | 41.45030 | -93.38961 | 32941 ft | 395 kts | 268° |
| 2026-05-08 02:52 | 41.44860 | -93.42595 | 32488 ft | 391 kts | 268° |
| 2026-05-08 02:52 | 41.44692 | -93.46197 | 32050 ft | 387 kts | 269° |
| 2026-05-08 02:52 | 41.44524 | -93.49757 | 31622 ft | 384 kts | 269° |
| 2026-05-08 02:52 | 41.44357 | -93.53290 | 31200 ft | 380 kts | 269° |
| 2026-05-08 02:53 | 41.44191 | -93.56789 | 30778 ft | 377 kts | 269° |
| 2026-05-08 02:53 | 41.44024 | -93.60260 | 30369 ft | 374 kts | 269° |
| 2026-05-08 02:53 | 41.43858 | -93.63706 | 29953 ft | 371 kts | 270° |
| 2026-05-08 02:53 | 41.43850 | -93.67118 | 29466 ft | 366 kts | 275° |
| 2026-05-08 02:54 | 41.44024 | -93.70477 | 29009 ft | 362 kts | 276° |
| 2026-05-08 02:54 | 41.44226 | -93.73801 | 28590 ft | 358 kts | 277° |
| 2026-05-08 02:54 | 41.44431 | -93.77088 | 28168 ft | 354 kts | 277° |
| 2026-05-08 02:54 | 41.44629 | -93.80334 | 27740 ft | 350 kts | 277° |
| 2026-05-08 02:55 | 41.44819 | -93.83553 | 27333 ft | 346 kts | 277° |
| 2026-05-08 02:55 | 41.45177 | -93.89848 | 26517 ft | 340 kts | 277° |
| 2026-05-08 02:55 | 41.45350 | -93.92974 | 26114 ft | 337 kts | 277° |
| 2026-05-08 02:56 | 41.45519 | -93.96079 | 25713 ft | 334 kts | 277° |
| 2026-05-08 02:56 | 41.45686 | -93.99158 | 25318 ft | 332 kts | 277° |
| 2026-05-08 02:56 | 41.45850 | -94.02218 | 24937 ft | 330 kts | 277° |
| 2026-05-08 02:56 | 41.46012 | -94.05259 | 24534 ft | 328 kts | 277° |
| 2026-05-08 02:57 | 41.46173 | -94.08276 | 24149 ft | 326 kts | 277° |
| 2026-05-08 02:57 | 41.46331 | -94.11281 | 23763 ft | 324 kts | 277° |
| 2026-05-08 02:57 | 41.46488 | -94.14266 | 23360 ft | 322 kts | 277° |
| 2026-05-08 02:57 | 41.46643 | -94.17237 | 22917 ft | 321 kts | 277° |
| 2026-05-08 02:58 | 41.46796 | -94.20181 | 22584 ft | 315 kts | 277° |
| 2026-05-08 02:58 | 41.46946 | -94.23079 | 22228 ft | 312 kts | 277° |
| 2026-05-08 02:58 | 41.47094 | -94.25954 | 21840 ft | 310 kts | 277° |
| 2026-05-08 02:58 | 41.47240 | -94.28805 | 21464 ft | 307 kts | 277° |
| 2026-05-08 02:59 | 41.47384 | -94.31638 | 21089 ft | 305 kts | 277° |
| 2026-05-08 02:59 | 41.47527 | -94.34456 | 20720 ft | 303 kts | 277° |
| 2026-05-08 02:59 | 41.47669 | -94.37252 | 20358 ft | 301 kts | 277° |
| 2026-05-08 02:59 | 41.47808 | -94.40032 | 19998 ft | 300 kts | 277° |
| 2026-05-08 03:00 | 41.47947 | -94.42800 | 19651 ft | 298 kts | 277° |
| 2026-05-08 03:00 | 41.48085 | -94.45556 | 19289 ft | 297 kts | 277° |
| 2026-05-08 03:00 | 41.48221 | -94.48304 | 18927 ft | 296 kts | 277° |
| 2026-05-08 03:00 | 41.48356 | -94.51040 | 18569 ft | 295 kts | 277° |
| 2026-05-08 03:01 | 41.48489 | -94.53766 | 18203 ft | 294 kts | 277° |
| 2026-05-08 03:01 | 41.48622 | -94.56485 | 17807 ft | 293 kts | 277° |
| 2026-05-08 03:01 | 41.48753 | -94.59192 | 17406 ft | 292 kts | 277° |
| 2026-05-08 03:01 | 41.48884 | -94.61890 | 17050 ft | 290 kts | 277° |
| 2026-05-08 03:02 | 41.49013 | -94.64569 | 16686 ft | 289 kts | 277° |
| 2026-05-08 03:02 | 41.49140 | -94.67231 | 16343 ft | 287 kts | 277° |
| 2026-05-08 03:02 | 41.49266 | -94.69881 | 16004 ft | 286 kts | 277° |
| 2026-05-08 03:02 | 41.49392 | -94.72523 | 15657 ft | 285 kts | 277° |
| 2026-05-08 03:03 | 41.49516 | -94.75153 | 15317 ft | 284 kts | 277° |
| 2026-05-08 03:03 | 41.49639 | -94.77777 | 14974 ft | 283 kts | 277° |
| 2026-05-08 03:03 | 41.49761 | -94.80395 | 14635 ft | 283 kts | 277° |
| 2026-05-08 03:03 | 41.49883 | -94.83008 | 14295 ft | 282 kts | 276° |
| 2026-05-08 03:04 | 41.50004 | -94.85620 | 13958 ft | 282 kts | 276° |
| 2026-05-08 03:04 | 41.50123 | -94.88196 | 13587 ft | 282 kts | 276° |
| 2026-05-08 03:04 | 41.50244 | -94.90840 | 13226 ft | 282 kts | 276° |
| 2026-05-08 03:04 | 41.50363 | -94.93447 | 12865 ft | 281 kts | 276° |
| 2026-05-08 03:05 | 41.50479 | -94.96014 | 12503 ft | 280 kts | 276° |
| 2026-05-08 03:05 | 41.50596 | -94.98602 | 12164 ft | 279 kts | 276° |
| 2026-05-08 03:05 | 41.50711 | -95.01178 | 11831 ft | 278 kts | 276° |
| 2026-05-08 03:05 | 41.50827 | -95.03746 | 11495 ft | 277 kts | 276° |
| 2026-05-08 03:06 | 41.50941 | -95.06304 | 11166 ft | 276 kts | 276° |
| 2026-05-08 03:06 | 41.51054 | -95.08854 | 10832 ft | 275 kts | 275° |
| 2026-05-08 03:06 | 41.51165 | -95.11403 | 10550 ft | 273 kts | 275° |
| 2026-05-08 03:06 | 41.51254 | -95.13897 | 10417 ft | 268 kts | 270° |
| 2026-05-08 03:07 | 41.50800 | -95.16310 | 10294 ft | 271 kts | 250° |
| 2026-05-08 03:07 | 41.49962 | -95.18571 | 10177 ft | 272 kts | 246° |
| 2026-05-08 03:07 | 41.49050 | -95.20769 | 10044 ft | 268 kts | 245° |
| 2026-05-08 03:07 | 41.48134 | -95.22937 | 9749 ft | 268 kts | 245° |
| 2026-05-08 03:08 | 41.47225 | -95.25097 | 9467 ft | 267 kts | 245° |
| 2026-05-08 03:08 | 41.46308 | -95.27286 | 9169 ft | 266 kts | 244° |
| 2026-05-08 03:08 | 41.45414 | -95.29434 | 8892 ft | 265 kts | 244° |
| 2026-05-08 03:08 | 41.44527 | -95.31576 | 8622 ft | 264 kts | 244° |
| 2026-05-08 03:09 | 41.43644 | -95.33713 | 8322 ft | 262 kts | 245° |
| 2026-05-08 03:09 | 41.42769 | -95.35829 | 8083 ft | 260 kts | 245° |
| 2026-05-08 03:09 | 41.41912 | -95.37905 | 7826 ft | 258 kts | 245° |
| 2026-05-08 03:09 | 41.41051 | -95.39993 | 7553 ft | 257 kts | 245° |
| 2026-05-08 03:10 | 41.40194 | -95.42069 | 7303 ft | 255 kts | 245° |
| 2026-05-08 03:10 | 41.39340 | -95.44138 | 7037 ft | 254 kts | 245° |
| 2026-05-08 03:10 | 41.38492 | -95.46197 | 6772 ft | 253 kts | 244° |
| 2026-05-08 03:10 | 41.37643 | -95.48251 | 6517 ft | 253 kts | 244° |
| 2026-05-08 03:11 | 41.36794 | -95.50304 | 6236 ft | 253 kts | 244° |
| 2026-05-08 03:11 | 41.35948 | -95.52352 | 5958 ft | 252 kts | 244° |
| 2026-05-08 03:11 | 41.35102 | -95.54396 | 5670 ft | 252 kts | 244° |
| 2026-05-08 03:11 | 41.34256 | -95.56436 | 5413 ft | 251 kts | 244° |
| 2026-05-08 03:12 | 41.33410 | -95.58477 | 5159 ft | 252 kts | 243° |
| 2026-05-08 03:12 | 41.32561 | -95.60526 | 4877 ft | 253 kts | 243° |
| 2026-05-08 03:12 | 41.31712 | -95.62574 | 4622 ft | 253 kts | 243° |
| 2026-05-08 03:12 | 41.30865 | -95.64611 | 4459 ft | 248 kts | 243° |
| 2026-05-08 03:13 | 41.30033 | -95.66581 | 4325 ft | 241 kts | 240° |
| 2026-05-08 03:13 | 41.29066 | -95.68360 | 4229 ft | 234 kts | 234° |
| 2026-05-08 03:13 | 41.28080 | -95.70040 | 4128 ft | 228 kts | 234° |
| 2026-05-08 03:13 | 41.27124 | -95.71676 | 4022 ft | 221 kts | 234° |
| 2026-05-08 03:14 | 41.26186 | -95.73297 | 3807 ft | 223 kts | 235° |
| 2026-05-08 03:14 | 41.25264 | -95.74932 | 3602 ft | 220 kts | 236° |
| 2026-05-08 03:14 | 41.24362 | -95.76548 | 3304 ft | 214 kts | 236° |
| 2026-05-08 03:14 | 41.23603 | -95.78177 | 3015 ft | 201 kts | 250° |
| 2026-05-08 03:15 | 41.23319 | -95.79913 | 2769 ft | 186 kts | 272° |
| 2026-05-08 03:15 | 41.23496 | -95.81541 | 2532 ft | 173 kts | 291° |
| 2026-05-08 03:15 | 41.23941 | -95.82928 | 2375 ft | 155 kts | 303° |
| 2026-05-08 03:15 | 41.24577 | -95.83997 | 2188 ft | 145 kts | 321° |
| 2026-05-08 03:16 | 41.25340 | -95.84846 | 2007 ft | 143 kts | 326° |
| 2026-05-08 03:16 | 41.26145 | -95.85632 | 1832 ft | 144 kts | 327° |
| 2026-05-08 03:16 | 41.26960 | -95.86406 | 1621 ft | 143 kts | 326° |
| 2026-05-08 03:16 | 41.27772 | -95.87152 | 1423 ft | 141 kts | 326° |
| 2026-05-08 03:17 | 41.28564 | -95.87920 | 1208 ft | 139 kts | 323° |
| 2026-05-08 03:17 | 41.29331 | -95.88662 | 1026 ft | 130 kts | 326° |
| 2026-05-08 03:17 | 41.30005 | -95.89297 | 986 ft | 102 kts | 324° |
| 2026-05-08 03:17 | 41.30458 | -95.89730 | 987 ft | 58 kts | 323° |
| 2026-05-08 03:18 | 41.30538 | -95.89901 | 987 ft | 12 kts | 233° |
| 2026-05-08 03:18 | 41.30492 | -95.89984 | 985 ft | 10 kts | 234° |
| 2026-05-08 03:18 | 41.30456 | -95.90025 | 990 ft | 3 kts | 159° |
| 2026-05-08 03:18 | 41.30439 | -95.90008 | 986 ft | 3 kts | 144° |
| 2026-05-08 03:19 | 41.30421 | -95.89991 | 985 ft | 4 kts | 143° |
| 2026-05-08 03:19 | 41.30396 | -95.89966 | 990 ft | 6 kts | 143° |
| 2026-05-08 03:19 | 41.30358 | -95.89928 | 987 ft | 8 kts | 143° |
| 2026-05-08 03:19 | 41.30307 | -95.89879 | 988 ft | 10 kts | 143° |
| 2026-05-08 03:20 | 41.30248 | -95.89816 | 984 ft | 11 kts | 132° |
| 2026-05-08 03:20 | 41.30190 | -95.89747 | 985 ft | 11 kts | 145° |
| 2026-05-08 03:20 | 41.30144 | -95.89756 | 985 ft | 7 kts | 240° |
| 2026-05-08 03:20 | 41.30136 | -95.89783 | 985 ft | 0 kts | 249° |